Terminal Aerodrome Forecast
Issued by NWS Birmingham, AL

Home | Current Version | Previous Version | Text Only | Print | Product List | Glossary On
Versions: 1 2 3 4 5 6 7 8 9 10 11 12 13 14 15 16 17
000
FTUS44 KBMX 171759 AAA
TAFBHM
TAF AMD
KBHM 171759Z 1718/1818 20010G15KT P6SM BKN026 BKN120
     FM172100 21007G14KT P6SM VCSH BKN015 OVC025
     FM180600 21004KT 4SM BR VCSH OVC004
     FM181500 03003KT 4SM BR OVC007=

USA.gov is the U.S. government's official web portal to all federal, state and local government web resources and services.